San Juan, Texas
Current Conditions -  °F | °C
As of 5:53 AM on Saturday 20 Dec 2014 (Local Time) from KMFE Reporting Station
Overcast Overcast  
Wind Chill: 59°   Ceiling: 1200
Heat Index: 59°   Visibility: 9mi
Dew Point: 55°   Wind: 10mph
Humidity: 87%   Direction: 30°NNE
Pressure: 30.13"   Gusts: NA
Location:  26.19°N, 98.15°W
Report Text: KMFE 201153Z 03009KT 9SM BKN012 OVC019 15/13 A3013 RMK AO2 SLP203 T01500128 10167 20150 53002
Loading
Personal Weather Stations






























Interactive Weather Map New forecast layout! Learn more

10-Day Weather Forecast

Advertisements
Track Severe Weather on mobile